createdAt,value
2019-05-23T00:15:19.486Z,12.60
2019-05-23T00:45:22.101Z,12.60
2019-05-23T01:15:24.710Z,12.40
2019-05-23T01:45:27.344Z,12.50
2019-05-23T02:15:29.952Z,12.30
2019-05-23T02:45:32.613Z,12.20
2019-05-23T03:15:35.393Z,12.10
2019-05-23T03:45:39.771Z,12.20
2019-05-23T04:15:42.523Z,11.90
2019-05-23T04:45:45.157Z,11.70
2019-05-23T05:15:47.750Z,11.70
2019-05-23T05:45:50.379Z,11.80
2019-05-23T06:15:53.026Z,11.90
2019-05-23T06:45:55.636Z,11.90
2019-05-23T07:15:58.331Z,11.90
2019-05-23T07:46:01.007Z,11.90
2019-05-23T08:16:03.782Z,12.00
2019-05-23T08:46:06.603Z,12.20
2019-05-23T09:16:09.201Z,11.90
2019-05-23T09:46:12.186Z,12.50
2019-05-23T10:16:14.812Z,12.50
2019-05-23T10:46:17.421Z,12.50
2019-05-23T11:16:20.030Z,12.90
2019-05-23T11:46:22.625Z,13.00
2019-05-23T12:16:25.305Z,13.30
2019-05-23T12:46:27.929Z,13.60
2019-05-23T13:16:30.522Z,14.10
2019-05-23T13:46:33.177Z,14.70
2019-05-23T14:16:35.857Z,15.80
2019-05-23T14:46:38.503Z,16.60
2019-05-23T15:16:41.147Z,16.00
2019-05-23T15:46:43.975Z,15.70
2019-05-23T16:16:46.719Z,15.70
2019-05-23T16:46:49.408Z,15.90
2019-05-23T17:16:52.107Z,16.80
2019-05-23T17:46:54.838Z,16.00
2019-05-23T18:16:57.531Z,15.70
2019-05-23T18:47:00.196Z,15.50
2019-05-23T19:17:02.833Z,15.30
2019-05-23T19:47:05.547Z,15.10
2019-05-23T20:17:09.472Z,15.00
2019-05-23T20:47:12.145Z,15.00
2019-05-23T21:17:14.875Z,15.00
2019-05-23T21:47:17.548Z,14.90
2019-05-23T22:17:20.153Z,14.60
2019-05-23T22:47:22.788Z,14.40
2019-05-23T23:17:25.429Z,14.50
2019-05-23T23:47:28.034Z,14.20
